sensor_id;sensor_type;location;lat;lon;timestamp;temperature;humidity
52731;DHT22;38624;53.242;6.974;2022-10-17T00:00:51;11.40;99.90
52731;DHT22;38624;53.242;6.974;2022-10-17T00:03:17;11.40;99.90
52731;DHT22;38624;53.242;6.974;2022-10-17T00:05:45;11.30;99.90
52731;DHT22;38624;53.242;6.974;2022-10-17T00:08:12;11.40;99.90
52731;DHT22;38624;53.242;6.974;2022-10-17T00:10:38;11.30;99.90
52731;DHT22;38624;53.242;6.974;2022-10-17T00:13:05;11.30;99.90
52731;DHT22;38624;53.242;6.974;2022-10-17T00:15:31;11.30;99.90
52731;DHT22;38624;53.242;6.974;2022-10-17T00:17:57;11.40;99.90
52731;DHT22;38624;53.242;6.974;2022-10-17T00:20:23;11.40;99.90
52731;DHT22;38624;53.242;6.974;2022-10-17T00:22:49;11.40;99.90
52731;DHT22;38624;53.242;6.974;2022-10-17T00:25:15;11.40;99.90
52731;DHT22;38624;53.242;6.974;2022-10-17T00:27:41;11.40;99.90
52731;DHT22;38624;53.242;6.974;2022-10-17T00:30:11;11.40;99.90
52731;DHT22;38624;53.242;6.974;2022-10-17T00:32:37;11.30;99.90
52731;DHT22;38624;53.242;6.974;2022-10-17T00:35:03;11.30;99.90
52731;DHT22;38624;53.242;6.974;2022-10-17T00:37:30;11.30;99.90
52731;DHT22;38624;53.242;6.974;2022-10-17T00:39:56;11.30;99.90
52731;DHT22;38624;53.242;6.974;2022-10-17T00:42:22;11.20;99.90
52731;DHT22;38624;53.242;6.974;2022-10-17T00:47:20;11.20;99.90
52731;DHT22;38624;53.242;6.974;2022-10-17T00:49:47;11.20;99.90
52731;DHT22;38624;53.242;6.974;2022-10-17T00:52:24;11.10;99.90
52731;DHT22;38624;53.242;6.974;2022-10-17T00:54:51;11.10;99.90
52731;DHT22;38624;53.242;6.974;2022-10-17T00:57:18;11.10;99.90
52731;DHT22;38624;53.242;6.974;2022-10-17T00:59:49;11.10;99.90
52731;DHT22;38624;53.242;6.974;2022-10-17T01:02:18;11.20;99.90
52731;DHT22;38624;53.242;6.974;2022-10-17T01:04:47;11.20;99.90
52731;DHT22;38624;53.242;6.974;2022-10-17T01:07:13;11.30;99.90
52731;DHT22;38624;53.242;6.974;2022-10-17T01:09:40;11.30;99.90
52731;DHT22;38624;53.242;6.974;2022-10-17T01:17:42;11.40;99.90
52731;DHT22;38624;53.242;6.974;2022-10-17T01:31:18;11.50;99.90
52731;DHT22;38624;53.242;6.974;2022-10-17T01:33:56;11.50;99.90
52731;DHT22;38624;53.242;6.974;2022-10-17T01:39:27;11.60;99.90
52731;DHT22;38624;53.242;6.974;2022-10-17T01:42:23;11.60;99.90
52731;DHT22;38624;53.242;6.974;2022-10-17T01:45:17;11.60;99.90
52731;DHT22;38624;53.242;6.974;2022-10-17T01:47:46;11.70;99.90
52731;DHT22;38624;53.242;6.974;2022-10-17T01:50:35;11.70;99.90
52731;DHT22;38624;53.242;6.974;2022-10-17T01:53:07;11.70;99.90
52731;DHT22;38624;53.242;6.974;2022-10-17T01:55:37;11.70;99.90
52731;DHT22;38624;53.242;6.974;2022-10-17T02:00:33;11.80;99.90
52731;DHT22;38624;53.242;6.974;2022-10-17T02:03:05;11.80;99.90
52731;DHT22;38624;53.242;6.974;2022-10-17T02:05:35;11.90;99.90
52731;DHT22;38624;53.242;6.974;2022-10-17T02:08:02;11.80;99.90
52731;DHT22;38624;53.242;6.974;2022-10-17T02:10:44;11.90;99.90
52731;DHT22;38624;53.242;6.974;2022-10-17T02:21:27;11.90;99.90
52731;DHT22;38624;53.242;6.974;2022-10-17T02:24:17;11.90;99.90
52731;DHT22;38624;53.242;6.974;2022-10-17T02:26:47;11.80;99.90
52731;DHT22;38624;53.242;6.974;2022-10-17T02:29:19;12.00;99.90
52731;DHT22;38624;53.242;6.974;2022-10-17T02:32:02;11.80;99.90
52731;DHT22;38624;53.242;6.974;2022-10-17T02:34:40;11.80;99.90
52731;DHT22;38624;53.242;6.974;2022-10-17T02:37:09;11.70;99.90
52731;DHT22;38624;53.242;6.974;2022-10-17T02:39:37;11.70;99.90
52731;DHT22;38624;53.242;6.974;2022-10-17T02:42:06;11.70;99.90
52731;DHT22;38624;53.242;6.974;2022-10-17T02:44:34;11.70;99.90
52731;DHT22;38624;53.242;6.974;2022-10-17T02:49:52;11.60;99.90
52731;DHT22;38624;53.242;6.974;2022-10-17T02:57:43;11.50;99.90
52731;DHT22;38624;53.242;6.974;2022-10-17T03:00:12;11.50;99.90
52731;DHT22;38624;53.242;6.974;2022-10-17T03:02:41;11.50;99.90
52731;DHT22;38624;53.242;6.974;2022-10-17T03:05:08;11.50;99.90
52731;DHT22;38624;53.242;6.974;2022-10-17T03:07:34;11.50;99.90
52731;DHT22;38624;53.242;6.974;2022-10-17T03:10:00;11.50;99.90
52731;DHT22;38624;53.242;6.974;2022-10-17T03:12:26;11.50;99.90
52731;DHT22;38624;53.242;6.974;2022-10-17T03:14:51;11.40;99.90
52731;DHT22;38624;53.242;6.974;2022-10-17T03:17:17;11.40;99.90
52731;DHT22;38624;53.242;6.974;2022-10-17T03:19:42;11.40;99.90
52731;DHT22;38624;53.242;6.974;2022-10-17T03:22:08;11.40;99.90
52731;DHT22;38624;53.242;6.974;2022-10-17T03:24:34;11.40;99.90
52731;DHT22;38624;53.242;6.974;2022-10-17T03:26:59;11.40;99.90
52731;DHT22;38624;53.242;6.974;2022-10-17T03:29:25;11.40;99.90
52731;DHT22;38624;53.242;6.974;2022-10-17T03:31:51;11.30;99.90
52731;DHT22;38624;53.242;6.974;2022-10-17T03:34:16;11.30;99.90
52731;DHT22;38624;53.242;6.974;2022-10-17T03:36:43;11.30;99.90
52731;DHT22;38624;53.242;6.974;2022-10-17T03:39:09;11.20;99.90
52731;DHT22;38624;53.242;6.974;2022-10-17T03:41:35;11.30;99.90
52731;DHT22;38624;53.242;6.974;2022-10-17T03:44:01;11.20;99.90
52731;DHT22;38624;53.242;6.974;2022-10-17T03:46:26;11.20;99.90
52731;DHT22;38624;53.242;6.974;2022-10-17T03:48:52;11.20;99.90
52731;DHT22;38624;53.242;6.974;2022-10-17T03:51:18;11.20;99.90
52731;DHT22;38624;53.242;6.974;2022-10-17T03:53:44;11.10;99.90
52731;DHT22;38624;53.242;6.974;2022-10-17T03:56:14;11.10;99.90
52731;DHT22;38624;53.242;6.974;2022-10-17T03:58:41;11.10;99.90
52731;DHT22;38624;53.242;6.974;2022-10-17T04:01:09;11.10;99.90
52731;DHT22;38624;53.242;6.974;2022-10-17T04:03:35;11.10;99.90
52731;DHT22;38624;53.242;6.974;2022-10-17T04:06:02;11.10;99.90
52731;DHT22;38624;53.242;6.974;2022-10-17T04:08:28;11.10;99.90
52731;DHT22;38624;53.242;6.974;2022-10-17T04:11:01;11.10;99.90
52731;DHT22;38624;53.242;6.974;2022-10-17T04:13:28;11.10;99.90
52731;DHT22;38624;53.242;6.974;2022-10-17T04:16:05;11.00;99.90
52731;DHT22;38624;53.242;6.974;2022-10-17T04:18:31;11.10;99.90
52731;DHT22;38624;53.242;6.974;2022-10-17T04:20:59;11.10;99.90
52731;DHT22;38624;53.242;6.974;2022-10-17T04:23:25;11.10;99.90
52731;DHT22;38624;53.242;6.974;2022-10-17T04:25:57;11.10;99.90
52731;DHT22;38624;53.242;6.974;2022-10-17T04:28:24;11.00;99.90
52731;DHT22;38624;53.242;6.974;2022-10-17T04:31:00;11.00;99.90
52731;DHT22;38624;53.242;6.974;2022-10-17T04:33:26;11.00;99.90
52731;DHT22;38624;53.242;6.974;2022-10-17T04:35:59;11.00;99.90
52731;DHT22;38624;53.242;6.974;2022-10-17T04:38:27;11.00;99.90
52731;DHT22;38624;53.242;6.974;2022-10-17T04:40:53;11.30;99.90
52731;DHT22;38624;53.242;6.974;2022-10-17T04:43:19;11.00;99.90
52731;DHT22;38624;53.242;6.974;2022-10-17T04:45:45;11.00;99.90
52731;DHT22;38624;53.242;6.974;2022-10-17T04:48:10;11.10;99.90
52731;DHT22;38624;53.242;6.974;2022-10-17T04:50:36;11.10;99.90
52731;DHT22;38624;53.242;6.974;2022-10-17T04:53:02;11.10;99.90
52731;DHT22;38624;53.242;6.974;2022-10-17T04:55:27;11.10;99.90
52731;DHT22;38624;53.242;6.974;2022-10-17T04:57:53;11.10;99.90
52731;DHT22;38624;53.242;6.974;2022-10-17T05:00:19;11.10;99.90
52731;DHT22;38624;53.242;6.974;2022-10-17T05:02:44;11.20;99.90
52731;DHT22;38624;53.242;6.974;2022-10-17T05:05:10;11.20;99.90
52731;DHT22;38624;53.242;6.974;2022-10-17T05:07:39;11.20;99.90
52731;DHT22;38624;53.242;6.974;2022-10-17T05:10:06;11.30;99.90
52731;DHT22;38624;53.242;6.974;2022-10-17T05:12:32;11.40;99.90
52731;DHT22;38624;53.242;6.974;2022-10-17T05:14:57;11.40;99.90
52731;DHT22;38624;53.242;6.974;2022-10-17T05:17:23;11.40;99.90
52731;DHT22;38624;53.242;6.974;2022-10-17T05:19:49;11.50;99.90
52731;DHT22;38624;53.242;6.974;2022-10-17T05:22:15;11.50;99.90
52731;DHT22;38624;53.242;6.974;2022-10-17T05:24:40;11.60;99.90
52731;DHT22;38624;53.242;6.974;2022-10-17T05:27:06;11.60;99.90
52731;DHT22;38624;53.242;6.974;2022-10-17T05:29:32;11.60;99.90
52731;DHT22;38624;53.242;6.974;2022-10-17T05:31:58;11.60;99.90
52731;DHT22;38624;53.242;6.974;2022-10-17T05:34:24;11.70;99.90
52731;DHT22;38624;53.242;6.974;2022-10-17T05:36:50;11.70;99.90
52731;DHT22;38624;53.242;6.974;2022-10-17T05:39:15;11.70;99.90
52731;DHT22;38624;53.242;6.974;2022-10-17T05:41:45;11.70;99.90
52731;DHT22;38624;53.242;6.974;2022-10-17T05:44:11;11.80;99.90
52731;DHT22;38624;53.242;6.974;2022-10-17T05:46:38;11.80;99.90
52731;DHT22;38624;53.242;6.974;2022-10-17T05:49:03;11.80;99.90
52731;DHT22;38624;53.242;6.974;2022-10-17T05:51:30;11.80;99.90
52731;DHT22;38624;53.242;6.974;2022-10-17T05:53:57;11.80;99.90
52731;DHT22;38624;53.242;6.974;2022-10-17T05:56:23;12.00;99.90
52731;DHT22;38624;53.242;6.974;2022-10-17T05:58:48;11.90;99.90
52731;DHT22;38624;53.242;6.974;2022-10-17T06:01:17;11.90;99.90
52731;DHT22;38624;53.242;6.974;2022-10-17T06:03:43;12.00;99.90
52731;DHT22;38624;53.242;6.974;2022-10-17T06:06:10;12.00;99.90
52731;DHT22;38624;53.242;6.974;2022-10-17T06:08:36;12.00;99.90
52731;DHT22;38624;53.242;6.974;2022-10-17T06:11:02;12.00;99.90
52731;DHT22;38624;53.242;6.974;2022-10-17T06:13:28;12.00;99.90
52731;DHT22;38624;53.242;6.974;2022-10-17T06:15:54;12.00;99.90
52731;DHT22;38624;53.242;6.974;2022-10-17T06:18:21;12.00;99.90
52731;DHT22;38624;53.242;6.974;2022-10-17T06:20:47;12.10;99.90
52731;DHT22;38624;53.242;6.974;2022-10-17T06:23:13;12.10;99.90
52731;DHT22;38624;53.242;6.974;2022-10-17T06:25:38;12.10;99.90
52731;DHT22;38624;53.242;6.974;2022-10-17T06:28:04;12.20;99.90
52731;DHT22;38624;53.242;6.974;2022-10-17T06:30:30;12.20;99.90
52731;DHT22;38624;53.242;6.974;2022-10-17T06:32:56;12.20;99.90
52731;DHT22;38624;53.242;6.974;2022-10-17T06:35:21;12.30;99.90
52731;DHT22;38624;53.242;6.974;2022-10-17T06:37:47;12.40;99.90
52731;DHT22;38624;53.242;6.974;2022-10-17T06:40:13;12.40;99.90
52731;DHT22;38624;53.242;6.974;2022-10-17T06:42:41;12.50;99.90
52731;DHT22;38624;53.242;6.974;2022-10-17T06:45:08;12.50;99.90
52731;DHT22;38624;53.242;6.974;2022-10-17T06:47:34;12.60;99.90
52731;DHT22;38624;53.242;6.974;2022-10-17T06:50:00;12.60;99.90
52731;DHT22;38624;53.242;6.974;2022-10-17T06:52:26;12.70;99.90
52731;DHT22;38624;53.242;6.974;2022-10-17T06:54:52;12.80;99.90
52731;DHT22;38624;53.242;6.974;2022-10-17T06:57:17;12.80;99.90
52731;DHT22;38624;53.242;6.974;2022-10-17T06:59:43;12.90;99.90
52731;DHT22;38624;53.242;6.974;2022-10-17T07:02:10;13.00;99.90
52731;DHT22;38624;53.242;6.974;2022-10-17T07:04:35;13.10;99.90
52731;DHT22;38624;53.242;6.974;2022-10-17T07:07:01;13.10;99.90
52731;DHT22;38624;53.242;6.974;2022-10-17T07:09:31;13.20;99.90
52731;DHT22;38624;53.242;6.974;2022-10-17T07:11:57;13.20;99.90
52731;DHT22;38624;53.242;6.974;2022-10-17T07:14:23;13.30;99.90
52731;DHT22;38624;53.242;6.974;2022-10-17T07:16:57;13.40;99.90
52731;DHT22;38624;53.242;6.974;2022-10-17T07:19:23;13.40;99.90
52731;DHT22;38624;53.242;6.974;2022-10-17T07:21:49;13.50;99.90
52731;DHT22;38624;53.242;6.974;2022-10-17T07:24:14;13.50;99.90
52731;DHT22;38624;53.242;6.974;2022-10-17T07:26:40;13.60;99.90
52731;DHT22;38624;53.242;6.974;2022-10-17T07:29:06;13.60;99.90
52731;DHT22;38624;53.242;6.974;2022-10-17T07:31:32;13.70;99.90
52731;DHT22;38624;53.242;6.974;2022-10-17T07:33:58;13.80;99.90
52731;DHT22;38624;53.242;6.974;2022-10-17T07:36:24;13.90;99.90
52731;DHT22;38624;53.242;6.974;2022-10-17T07:38:50;14.00;99.90
52731;DHT22;38624;53.242;6.974;2022-10-17T07:41:16;14.10;99.90
52731;DHT22;38624;53.242;6.974;2022-10-17T07:43:43;14.10;99.90
52731;DHT22;38624;53.242;6.974;2022-10-17T07:46:09;14.20;99.90
52731;DHT22;38624;53.242;6.974;2022-10-17T07:48:37;14.30;99.90
52731;DHT22;38624;53.242;6.974;2022-10-17T07:51:06;14.30;99.90
52731;DHT22;38624;53.242;6.974;2022-10-17T07:53:35;14.40;99.90
52731;DHT22;38624;53.242;6.974;2022-10-17T07:56:05;14.50;99.90
52731;DHT22;38624;53.242;6.974;2022-10-17T07:58:31;14.10;99.90
52731;DHT22;38624;53.242;6.974;2022-10-17T08:01:02;14.70;99.90
52731;DHT22;38624;53.242;6.974;2022-10-17T08:03:28;14.80;99.90
52731;DHT22;38624;53.242;6.974;2022-10-17T08:05:58;14.80;99.90
52731;DHT22;38624;53.242;6.974;2022-10-17T08:08:25;14.90;99.90
52731;DHT22;38624;53.242;6.974;2022-10-17T08:10:50;15.00;99.90
52731;DHT22;38624;53.242;6.974;2022-10-17T08:13:16;15.10;99.90
52731;DHT22;38624;53.242;6.974;2022-10-17T08:15:42;15.10;99.90
52731;DHT22;38624;53.242;6.974;2022-10-17T08:18:08;15.20;99.90
52731;DHT22;38624;53.242;6.974;2022-10-17T08:20:34;15.30;99.90
52731;DHT22;38624;53.242;6.974;2022-10-17T08:23:01;15.30;99.90
52731;DHT22;38624;53.242;6.974;2022-10-17T08:25:26;15.40;99.90
52731;DHT22;38624;53.242;6.974;2022-10-17T08:27:52;15.50;99.90
52731;DHT22;38624;53.242;6.974;2022-10-17T08:30:18;15.60;99.90
52731;DHT22;38624;53.242;6.974;2022-10-17T08:32:43;15.60;99.90
52731;DHT22;38624;53.242;6.974;2022-10-17T08:35:09;15.70;99.90
52731;DHT22;38624;53.242;6.974;2022-10-17T08:37:35;15.80;99.90
52731;DHT22;38624;53.242;6.974;2022-10-17T08:40:00;15.90;99.90
52731;DHT22;38624;53.242;6.974;2022-10-17T08:42:44;16.00;99.90
52731;DHT22;38624;53.242;6.974;2022-10-17T08:45:31;16.00;99.90
52731;DHT22;38624;53.242;6.974;2022-10-17T08:48:00;16.10;99.90
52731;DHT22;38624;53.242;6.974;2022-10-17T08:50:39;16.20;99.90
52731;DHT22;38624;53.242;6.974;2022-10-17T08:55:45;16.30;99.90
52731;DHT22;38624;53.242;6.974;2022-10-17T08:58:23;16.30;99.90
52731;DHT22;38624;53.242;6.974;2022-10-17T09:06:27;16.50;99.90
52731;DHT22;38624;53.242;6.974;2022-10-17T09:11:55;16.60;99.90
52731;DHT22;38624;53.242;6.974;2022-10-17T09:17:11;16.70;99.90
52731;DHT22;38624;53.242;6.974;2022-10-17T09:19:47;16.70;99.90
52731;DHT22;38624;53.242;6.974;2022-10-17T09:22:19;16.80;99.90
52731;DHT22;38624;53.242;6.974;2022-10-17T09:25:01;16.90;99.90
52731;DHT22;38624;53.242;6.974;2022-10-17T09:27:35;16.90;99.90
52731;DHT22;38624;53.242;6.974;2022-10-17T09:33:26;17.10;99.90
52731;DHT22;38624;53.242;6.974;2022-10-17T09:35:53;17.20;99.90
52731;DHT22;38624;53.242;6.974;2022-10-17T09:38:22;17.10;99.90
52731;DHT22;38624;53.242;6.974;2022-10-17T09:40:59;17.10;99.90
52731;DHT22;38624;53.242;6.974;2022-10-17T09:43:25;17.20;99.90
52731;DHT22;38624;53.242;6.974;2022-10-17T09:46:34;17.10;99.90
52731;DHT22;38624;53.242;6.974;2022-10-17T09:48:47;17.10;99.90
52731;DHT22;38624;53.242;6.974;2022-10-17T09:51:15;17.10;99.90
52731;DHT22;38624;53.242;6.974;2022-10-17T09:53:49;17.00;99.90
52731;DHT22;38624;53.242;6.974;2022-10-17T09:56:18;17.00;99.90
52731;DHT22;38624;53.242;6.974;2022-10-17T09:58:52;17.10;99.90
52731;DHT22;38624;53.242;6.974;2022-10-17T10:04:10;17.10;99.90
52731;DHT22;38624;53.242;6.974;2022-10-17T10:06:36;17.00;99.90
52731;DHT22;38624;53.242;6.974;2022-10-17T10:09:03;17.00;99.90
52731;DHT22;38624;53.242;6.974;2022-10-17T10:11:51;17.00;99.90
52731;DHT22;38624;53.242;6.974;2022-10-17T10:14:30;17.00;99.90
52731;DHT22;38624;53.242;6.974;2022-10-17T10:17:00;17.00;99.90
52731;DHT22;38624;53.242;6.974;2022-10-17T10:19:35;16.90;99.90
52731;DHT22;38624;53.242;6.974;2022-10-17T10:22:03;16.90;99.90
52731;DHT22;38624;53.242;6.974;2022-10-17T10:24:28;16.90;99.90
52731;DHT22;38624;53.242;6.974;2022-10-17T10:27:00;16.90;99.90
52731;DHT22;38624;53.242;6.974;2022-10-17T10:29:40;16.90;99.90
52731;DHT22;38624;53.242;6.974;2022-10-17T10:34:34;16.70;99.90
52731;DHT22;38624;53.242;6.974;2022-10-17T10:37:04;16.70;99.90
52731;DHT22;38624;53.242;6.974;2022-10-17T10:42:06;16.60;99.90
52731;DHT22;38624;53.242;6.974;2022-10-17T10:44:33;16.60;99.90
52731;DHT22;38624;53.242;6.974;2022-10-17T10:47:13;16.60;99.90
52731;DHT22;38624;53.242;6.974;2022-10-17T10:49:41;16.60;99.90
52731;DHT22;38624;53.242;6.974;2022-10-17T10:52:07;16.50;99.90
52731;DHT22;38624;53.242;6.974;2022-10-17T10:54:39;16.50;99.90
52731;DHT22;38624;53.242;6.974;2022-10-17T10:57:11;16.50;99.90
52731;DHT22;38624;53.242;6.974;2022-10-17T11:02:20;16.40;99.90
52731;DHT22;38624;53.242;6.974;2022-10-17T11:04:54;16.40;99.90
52731;DHT22;38624;53.242;6.974;2022-10-17T11:10:30;16.40;99.90
52731;DHT22;38624;53.242;6.974;2022-10-17T11:15:52;16.30;99.90
52731;DHT22;38624;53.242;6.974;2022-10-17T11:18:27;16.20;99.90
52731;DHT22;38624;53.242;6.974;2022-10-17T11:21:02;16.20;99.90
52731;DHT22;38624;53.242;6.974;2022-10-17T11:24:02;16.20;99.90
52731;DHT22;38624;53.242;6.974;2022-10-17T11:26:28;16.20;99.90
52731;DHT22;38624;53.242;6.974;2022-10-17T11:28:57;16.20;99.90
52731;DHT22;38624;53.242;6.974;2022-10-17T11:31:29;16.30;99.90
52731;DHT22;38624;53.242;6.974;2022-10-17T11:34:14;16.30;99.90
52731;DHT22;38624;53.242;6.974;2022-10-17T11:36:46;16.40;99.90
52731;DHT22;38624;53.242;6.974;2022-10-17T11:46:57;16.40;99.90
52731;DHT22;38624;53.242;6.974;2022-10-17T11:49:33;16.40;99.90
52731;DHT22;38624;53.242;6.974;2022-10-17T11:54:54;16.40;99.90
52731;DHT22;38624;53.242;6.974;2022-10-17T12:09:24;16.30;99.90
52731;DHT22;38624;53.242;6.974;2022-10-17T12:14:42;16.40;99.90
52731;DHT22;38624;53.242;6.974;2022-10-17T12:27:47;16.60;99.90
52731;DHT22;38624;53.242;6.974;2022-10-17T12:30:24;16.70;99.90
52731;DHT22;38624;53.242;6.974;2022-10-17T12:32:59;16.70;99.90
52731;DHT22;38624;53.242;6.974;2022-10-17T12:35:28;16.80;99.90
52731;DHT22;38624;53.242;6.974;2022-10-17T12:43:01;16.80;99.90
52731;DHT22;38624;53.242;6.974;2022-10-17T12:45:56;16.90;99.90
52731;DHT22;38624;53.242;6.974;2022-10-17T12:56:09;17.00;99.90
52731;DHT22;38624;53.242;6.974;2022-10-17T12:58:35;16.90;99.90
52731;DHT22;38624;53.242;6.974;2022-10-17T13:01:01;17.00;99.90
52731;DHT22;38624;53.242;6.974;2022-10-17T13:03:31;16.90;99.90
52731;DHT22;38624;53.242;6.974;2022-10-17T13:06:05;16.90;99.90
52731;DHT22;38624;53.242;6.974;2022-10-17T13:08:38;16.90;99.90
52731;DHT22;38624;53.242;6.974;2022-10-17T13:11:07;16.90;99.90
52731;DHT22;38624;53.242;6.974;2022-10-17T13:13:37;16.90;99.90
52731;DHT22;38624;53.242;6.974;2022-10-17T13:16:06;16.90;99.90
52731;DHT22;38624;53.242;6.974;2022-10-17T13:18:32;17.00;99.90
52731;DHT22;38624;53.242;6.974;2022-10-17T13:21:12;17.10;99.90
52731;DHT22;38624;53.242;6.974;2022-10-17T13:23:39;17.00;99.90
52731;DHT22;38624;53.242;6.974;2022-10-17T13:26:12;17.10;99.90
52731;DHT22;38624;53.242;6.974;2022-10-17T13:28:39;17.10;99.90
52731;DHT22;38624;53.242;6.974;2022-10-17T13:31:05;17.10;99.90
52731;DHT22;38624;53.242;6.974;2022-10-17T13:33:37;17.00;99.90
52731;DHT22;38624;53.242;6.974;2022-10-17T13:36:06;17.00;99.90
52731;DHT22;38624;53.242;6.974;2022-10-17T13:38:34;17.00;99.90
52731;DHT22;38624;53.242;6.974;2022-10-17T13:41:02;17.00;99.90
52731;DHT22;38624;53.242;6.974;2022-10-17T13:43:29;16.90;99.90
52731;DHT22;38624;53.242;6.974;2022-10-17T13:46:00;16.90;99.90
52731;DHT22;38624;53.242;6.974;2022-10-17T13:48:31;16.90;99.90
52731;DHT22;38624;53.242;6.974;2022-10-17T13:51:00;16.90;99.90
52731;DHT22;38624;53.242;6.974;2022-10-17T13:53:35;16.80;99.90
52731;DHT22;38624;53.242;6.974;2022-10-17T13:56:04;16.90;99.90
52731;DHT22;38624;53.242;6.974;2022-10-17T13:58:48;16.80;99.90
52731;DHT22;38624;53.242;6.974;2022-10-17T14:01:16;16.70;99.90
52731;DHT22;38624;53.242;6.974;2022-10-17T14:03:46;16.70;99.90
52731;DHT22;38624;53.242;6.974;2022-10-17T14:06:21;16.60;99.90
52731;DHT22;38624;53.242;6.974;2022-10-17T14:11:35;16.60;99.90
52731;DHT22;38624;53.242;6.974;2022-10-17T14:14:03;16.60;99.90
52731;DHT22;38624;53.242;6.974;2022-10-17T14:16:36;16.50;99.90
52731;DHT22;38624;53.242;6.974;2022-10-17T14:19:04;16.50;99.90
52731;DHT22;38624;53.242;6.974;2022-10-17T14:21:31;16.40;99.90
52731;DHT22;38624;53.242;6.974;2022-10-17T14:24:21;16.40;99.90
52731;DHT22;38624;53.242;6.974;2022-10-17T14:26:55;16.40;99.90
52731;DHT22;38624;53.242;6.974;2022-10-17T14:29:31;16.30;99.90
52731;DHT22;38624;53.242;6.974;2022-10-17T14:32:11;16.30;99.90
52731;DHT22;38624;53.242;6.974;2022-10-17T14:34:39;16.30;99.90
52731;DHT22;38624;53.242;6.974;2022-10-17T14:40:17;16.30;99.90
52731;DHT22;38624;53.242;6.974;2022-10-17T14:42:44;16.30;99.90
52731;DHT22;38624;53.242;6.974;2022-10-17T14:45:24;16.30;99.90
52731;DHT22;38624;53.242;6.974;2022-10-17T14:47:53;16.20;99.90
52731;DHT22;38624;53.242;6.974;2022-10-17T14:50:25;16.10;99.90
52731;DHT22;38624;53.242;6.974;2022-10-17T14:53:20;16.10;99.90
52731;DHT22;38624;53.242;6.974;2022-10-17T14:56:04;16.10;99.90
52731;DHT22;38624;53.242;6.974;2022-10-17T14:58:32;16.00;99.90
52731;DHT22;38624;53.242;6.974;2022-10-17T15:00:59;16.00;99.90
52731;DHT22;38624;53.242;6.974;2022-10-17T15:03:25;16.00;99.90
52731;DHT22;38624;53.242;6.974;2022-10-17T15:05:52;15.90;99.90
52731;DHT22;38624;53.242;6.974;2022-10-17T15:08:22;15.90;99.90
52731;DHT22;38624;53.242;6.974;2022-10-17T15:10:49;15.90;99.90
52731;DHT22;38624;53.242;6.974;2022-10-17T15:13:16;15.80;99.90
52731;DHT22;38624;53.242;6.974;2022-10-17T15:15:42;15.80;99.90
52731;DHT22;38624;53.242;6.974;2022-10-17T15:18:10;15.70;99.90
52731;DHT22;38624;53.242;6.974;2022-10-17T15:20:37;15.70;99.90
52731;DHT22;38624;53.242;6.974;2022-10-17T15:23:03;15.60;99.90
52731;DHT22;38624;53.242;6.974;2022-10-17T15:25:30;15.60;99.90
52731;DHT22;38624;53.242;6.974;2022-10-17T15:27:56;15.60;99.90
52731;DHT22;38624;53.242;6.974;2022-10-17T15:30:27;15.60;99.90
52731;DHT22;38624;53.242;6.974;2022-10-17T15:32:53;15.50;99.90
52731;DHT22;38624;53.242;6.974;2022-10-17T15:35:20;16.10;99.90
52731;DHT22;38624;53.242;6.974;2022-10-17T15:37:46;15.50;99.90
52731;DHT22;38624;53.242;6.974;2022-10-17T15:40:20;15.50;99.90
52731;DHT22;38624;53.242;6.974;2022-10-17T15:42:46;15.60;99.90
52731;DHT22;38624;53.242;6.974;2022-10-17T15:45:14;15.50;99.90
52731;DHT22;38624;53.242;6.974;2022-10-17T15:47:42;15.50;99.90
52731;DHT22;38624;53.242;6.974;2022-10-17T15:50:13;15.50;99.90
52731;DHT22;38624;53.242;6.974;2022-10-17T15:52:38;15.50;99.90
52731;DHT22;38624;53.242;6.974;2022-10-17T15:55:06;15.50;99.90
52731;DHT22;38624;53.242;6.974;2022-10-17T15:57:33;15.40;99.90
52731;DHT22;38624;53.242;6.974;2022-10-17T16:00:00;15.40;99.90
52731;DHT22;38624;53.242;6.974;2022-10-17T16:02:26;15.40;99.90
52731;DHT22;38624;53.242;6.974;2022-10-17T16:04:52;15.40;99.90
52731;DHT22;38624;53.242;6.974;2022-10-17T16:07:19;15.30;99.90
52731;DHT22;38624;53.242;6.974;2022-10-17T16:09:45;15.30;99.90
52731;DHT22;38624;53.242;6.974;2022-10-17T16:12:17;15.20;99.90
52731;DHT22;38624;53.242;6.974;2022-10-17T16:14:44;15.20;99.90
52731;DHT22;38624;53.242;6.974;2022-10-17T16:17:14;15.20;99.90
52731;DHT22;38624;53.242;6.974;2022-10-17T16:19:40;15.20;99.90
52731;DHT22;38624;53.242;6.974;2022-10-17T16:22:23;15.20;99.90
52731;DHT22;38624;53.242;6.974;2022-10-17T16:24:50;15.10;99.90
52731;DHT22;38624;53.242;6.974;2022-10-17T16:27:22;15.10;99.90
52731;DHT22;38624;53.242;6.974;2022-10-17T16:29:48;15.10;99.90
52731;DHT22;38624;53.242;6.974;2022-10-17T16:32:14;15.00;99.90
52731;DHT22;38624;53.242;6.974;2022-10-17T16:34:39;15.00;99.90
52731;DHT22;38624;53.242;6.974;2022-10-17T16:37:05;14.90;99.90
52731;DHT22;38624;53.242;6.974;2022-10-17T16:39:31;14.90;99.90
52731;DHT22;38624;53.242;6.974;2022-10-17T16:41:56;14.90;99.90
52731;DHT22;38624;53.242;6.974;2022-10-17T16:44:22;14.80;99.90
52731;DHT22;38624;53.242;6.974;2022-10-17T16:46:48;14.80;99.90
52731;DHT22;38624;53.242;6.974;2022-10-17T16:49:13;14.70;99.90
52731;DHT22;38624;53.242;6.974;2022-10-17T16:51:41;14.70;99.90
52731;DHT22;38624;53.242;6.974;2022-10-17T16:54:07;14.70;99.90
52731;DHT22;38624;53.242;6.974;2022-10-17T16:56:33;14.70;99.90
52731;DHT22;38624;53.242;6.974;2022-10-17T16:58:59;14.60;99.90
52731;DHT22;38624;53.242;6.974;2022-10-17T17:01:26;14.60;99.90
52731;DHT22;38624;53.242;6.974;2022-10-17T17:03:53;14.60;99.90
52731;DHT22;38624;53.242;6.974;2022-10-17T17:06:22;14.60;99.90
52731;DHT22;38624;53.242;6.974;2022-10-17T17:08:49;14.60;99.90
52731;DHT22;38624;53.242;6.974;2022-10-17T17:11:17;14.50;99.90
52731;DHT22;38624;53.242;6.974;2022-10-17T17:13:43;14.50;99.90
52731;DHT22;38624;53.242;6.974;2022-10-17T17:16:13;14.50;99.90
52731;DHT22;38624;53.242;6.974;2022-10-17T17:18:40;14.50;99.90
52731;DHT22;38624;53.242;6.974;2022-10-17T17:21:07;14.40;99.90
52731;DHT22;38624;53.242;6.974;2022-10-17T17:23:37;14.40;99.90
52731;DHT22;38624;53.242;6.974;2022-10-17T17:26:09;14.40;99.90
52731;DHT22;38624;53.242;6.974;2022-10-17T17:28:35;14.40;99.90
52731;DHT22;38624;53.242;6.974;2022-10-17T17:31:01;14.40;99.90
52731;DHT22;38624;53.242;6.974;2022-10-17T17:33:27;14.40;99.90
52731;DHT22;38624;53.242;6.974;2022-10-17T17:35:57;14.40;99.90
52731;DHT22;38624;53.242;6.974;2022-10-17T17:38:25;14.30;99.90
52731;DHT22;38624;53.242;6.974;2022-10-17T17:40:51;14.40;99.90
52731;DHT22;38624;53.242;6.974;2022-10-17T17:43:17;14.40;99.90
52731;DHT22;38624;53.242;6.974;2022-10-17T17:45:42;14.40;99.90
52731;DHT22;38624;53.242;6.974;2022-10-17T17:48:08;14.40;99.90
52731;DHT22;38624;53.242;6.974;2022-10-17T17:50:38;14.40;99.90